Georgetown, Tennessee
Current Conditions -  °F | °C
As of 3:53 PM on Saturday 22 Nov 2014 (Local Time) from KCHA Reporting Station
Broken Clouds Broken Clouds  
Wind Chill: 61°   Ceiling: 25000
Heat Index: 61°   Visibility: 10mi
Dew Point: 29°   Wind: 6mph
Humidity: 30%   Direction: 140°SE
Pressure: 30.25"   Gusts: NA
Location:  35.27°N, 84.98°W
Report Text: KCHA 222053Z 14005KT 10SM FEW070 SCT150 BKN250 16/M02 A3025 RMK AO2 SLP244 T01611017 56029
Loading
Personal Weather Stations






























Interactive Weather Map New forecast layout! Learn more

10-Day Weather Forecast

Advertisements
Track Severe Weather on mobile